sensor_id;sensor_type;location;lat;lon;timestamp;P1;durP1;ratioP1;P2;durP2;ratioP2
55292;SDS011;41157;53.560;10.098;2023-05-10T00:01:31;5.50;;;2.70;;
55292;SDS011;41157;53.560;10.098;2023-05-10T00:04:00;5.93;;;3.00;;
55292;SDS011;41157;53.560;10.098;2023-05-10T00:06:27;4.73;;;2.90;;
55292;SDS011;41157;53.560;10.098;2023-05-10T00:08:54;4.20;;;3.30;;
55292;SDS011;41157;53.560;10.098;2023-05-10T00:11:21;4.23;;;2.80;;
55292;SDS011;41157;53.560;10.098;2023-05-10T00:13:49;6.80;;;3.50;;
55292;SDS011;41157;53.560;10.098;2023-05-10T00:16:16;4.93;;;3.10;;
55292;SDS011;41157;53.560;10.098;2023-05-10T00:18:43;7.33;;;3.33;;
55292;SDS011;41157;53.560;10.098;2023-05-10T00:21:11;5.43;;;3.00;;
55292;SDS011;41157;53.560;10.098;2023-05-10T00:23:38;4.63;;;3.00;;
55292;SDS011;41157;53.560;10.098;2023-05-10T00:26:05;6.47;;;3.30;;
55292;SDS011;41157;53.560;10.098;2023-05-10T00:28:32;6.67;;;2.97;;
55292;SDS011;41157;53.560;10.098;2023-05-10T00:30:59;3.00;;;2.70;;
55292;SDS011;41157;53.560;10.098;2023-05-10T00:33:27;4.67;;;2.97;;
55292;SDS011;41157;53.560;10.098;2023-05-10T00:35:54;7.47;;;3.20;;
55292;SDS011;41157;53.560;10.098;2023-05-10T00:38:22;4.63;;;3.40;;
55292;SDS011;41157;53.560;10.098;2023-05-10T00:40:49;6.17;;;3.17;;
55292;SDS011;41157;53.560;10.098;2023-05-10T00:43:16;4.80;;;3.10;;
55292;SDS011;41157;53.560;10.098;2023-05-10T00:45:43;6.90;;;3.50;;
55292;SDS011;41157;53.560;10.098;2023-05-10T00:48:11;5.87;;;3.40;;
55292;SDS011;41157;53.560;10.098;2023-05-10T00:50:38;6.70;;;2.83;;
55292;SDS011;41157;53.560;10.098;2023-05-10T00:53:06;4.97;;;2.90;;
55292;SDS011;41157;53.560;10.098;2023-05-10T00:55:35;4.23;;;3.57;;
55292;SDS011;41157;53.560;10.098;2023-05-10T00:58:02;9.47;;;3.37;;
55292;SDS011;41157;53.560;10.098;2023-05-10T01:00:29;3.20;;;2.80;;
55292;SDS011;41157;53.560;10.098;2023-05-10T01:02:56;7.03;;;3.30;;
55292;SDS011;41157;53.560;10.098;2023-05-10T01:05:23;3.53;;;3.23;;
55292;SDS011;41157;53.560;10.098;2023-05-10T01:07:52;3.77;;;3.10;;
55292;SDS011;41157;53.560;10.098;2023-05-10T01:10:19;4.93;;;3.40;;
55292;SDS011;41157;53.560;10.098;2023-05-10T01:12:47;5.80;;;2.73;;
55292;SDS011;41157;53.560;10.098;2023-05-10T01:15:14;4.07;;;3.10;;
55292;SDS011;41157;53.560;10.098;2023-05-10T01:17:43;5.03;;;3.13;;
55292;SDS011;41157;53.560;10.098;2023-05-10T01:20:11;4.90;;;3.37;;
55292;SDS011;41157;53.560;10.098;2023-05-10T01:22:42;8.30;;;3.33;;
55292;SDS011;41157;53.560;10.098;2023-05-10T01:25:27;5.03;;;3.00;;
55292;SDS011;41157;53.560;10.098;2023-05-10T01:28:13;5.17;;;2.90;;
55292;SDS011;41157;53.560;10.098;2023-05-10T01:33:26;9.70;;;3.40;;
55292;SDS011;41157;53.560;10.098;2023-05-10T01:35:58;7.43;;;3.10;;
55292;SDS011;41157;53.560;10.098;2023-05-10T01:38:29;4.70;;;3.07;;
55292;SDS011;41157;53.560;10.098;2023-05-10T01:40:59;9.67;;;3.00;;
55292;SDS011;41157;53.560;10.098;2023-05-10T01:43:30;10.60;;;3.40;;
55292;SDS011;41157;53.560;10.098;2023-05-10T01:45:59;7.67;;;2.80;;
55292;SDS011;41157;53.560;10.098;2023-05-10T01:48:30;7.83;;;3.07;;
55292;SDS011;41157;53.560;10.098;2023-05-10T01:50:58;3.83;;;3.17;;
55292;SDS011;41157;53.560;10.098;2023-05-10T01:53:25;5.33;;;2.90;;
55292;SDS011;41157;53.560;10.098;2023-05-10T01:55:53;3.87;;;3.43;;
55292;SDS011;41157;53.560;10.098;2023-05-10T01:58:22;8.33;;;3.20;;
55292;SDS011;41157;53.560;10.098;2023-05-10T02:00:50;8.83;;;3.00;;
55292;SDS011;41157;53.560;10.098;2023-05-10T02:03:18;6.43;;;3.37;;
55292;SDS011;41157;53.560;10.098;2023-05-10T02:05:49;5.90;;;3.40;;
55292;SDS011;41157;53.560;10.098;2023-05-10T02:08:17;5.07;;;3.30;;
55292;SDS011;41157;53.560;10.098;2023-05-10T02:10:44;4.93;;;3.27;;
55292;SDS011;41157;53.560;10.098;2023-05-10T02:13:12;3.37;;;3.07;;
55292;SDS011;41157;53.560;10.098;2023-05-10T02:15:39;5.33;;;3.07;;
55292;SDS011;41157;53.560;10.098;2023-05-10T02:18:07;8.37;;;3.10;;
55292;SDS011;41157;53.560;10.098;2023-05-10T02:20:34;8.33;;;3.43;;
55292;SDS011;41157;53.560;10.098;2023-05-10T02:23:03;5.17;;;3.00;;
55292;SDS011;41157;53.560;10.098;2023-05-10T02:25:30;5.13;;;3.23;;
55292;SDS011;41157;53.560;10.098;2023-05-10T02:27:58;4.13;;;3.20;;
55292;SDS011;41157;53.560;10.098;2023-05-10T02:30:26;3.27;;;2.90;;
55292;SDS011;41157;53.560;10.098;2023-05-10T02:32:54;4.00;;;3.07;;
55292;SDS011;41157;53.560;10.098;2023-05-10T02:35:23;5.77;;;3.20;;
55292;SDS011;41157;53.560;10.098;2023-05-10T02:37:51;6.80;;;3.20;;
55292;SDS011;41157;53.560;10.098;2023-05-10T02:40:20;3.83;;;3.27;;
55292;SDS011;41157;53.560;10.098;2023-05-10T02:42:48;3.77;;;3.33;;
55292;SDS011;41157;53.560;10.098;2023-05-10T02:45:18;6.67;;;3.23;;
55292;SDS011;41157;53.560;10.098;2023-05-10T02:47:46;5.80;;;3.43;;
55292;SDS011;41157;53.560;10.098;2023-05-10T02:50:13;5.60;;;3.43;;
55292;SDS011;41157;53.560;10.098;2023-05-10T02:52:41;3.90;;;3.20;;
55292;SDS011;41157;53.560;10.098;2023-05-10T02:55:09;4.53;;;3.30;;
55292;SDS011;41157;53.560;10.098;2023-05-10T02:57:40;3.77;;;2.90;;
55292;SDS011;41157;53.560;10.098;2023-05-10T03:00:08;3.90;;;2.83;;
55292;SDS011;41157;53.560;10.098;2023-05-10T03:02:35;9.57;;;3.27;;
55292;SDS011;41157;53.560;10.098;2023-05-10T03:05:02;6.77;;;3.23;;
55292;SDS011;41157;53.560;10.098;2023-05-10T03:07:29;3.93;;;2.90;;
55292;SDS011;41157;53.560;10.098;2023-05-10T03:09:56;4.97;;;2.97;;
55292;SDS011;41157;53.560;10.098;2023-05-10T03:12:29;5.97;;;3.50;;
55292;SDS011;41157;53.560;10.098;2023-05-10T03:15:03;13.23;;;3.47;;
55292;SDS011;41157;53.560;10.098;2023-05-10T03:17:35;5.43;;;3.17;;
55292;SDS011;41157;53.560;10.098;2023-05-10T03:20:03;13.87;;;3.57;;
55292;SDS011;41157;53.560;10.098;2023-05-10T03:22:31;6.90;;;3.40;;
55292;SDS011;41157;53.560;10.098;2023-05-10T03:24:59;5.03;;;3.60;;
55292;SDS011;41157;53.560;10.098;2023-05-10T03:27:28;8.47;;;3.07;;
55292;SDS011;41157;53.560;10.098;2023-05-10T03:29:56;5.77;;;3.87;;
55292;SDS011;41157;53.560;10.098;2023-05-10T03:32:25;5.63;;;3.20;;
55292;SDS011;41157;53.560;10.098;2023-05-10T03:34:53;5.87;;;3.53;;
55292;SDS011;41157;53.560;10.098;2023-05-10T03:37:20;3.77;;;3.37;;
55292;SDS011;41157;53.560;10.098;2023-05-10T03:39:47;5.77;;;3.27;;
55292;SDS011;41157;53.560;10.098;2023-05-10T03:42:14;4.60;;;3.00;;
55292;SDS011;41157;53.560;10.098;2023-05-10T03:44:42;5.60;;;3.60;;
55292;SDS011;41157;53.560;10.098;2023-05-10T03:47:09;6.40;;;3.03;;
55292;SDS011;41157;53.560;10.098;2023-05-10T03:49:38;7.33;;;3.50;;
55292;SDS011;41157;53.560;10.098;2023-05-10T03:52:05;8.03;;;3.03;;
55292;SDS011;41157;53.560;10.098;2023-05-10T03:54:32;4.10;;;3.50;;
55292;SDS011;41157;53.560;10.098;2023-05-10T03:56:59;4.73;;;3.60;;
55292;SDS011;41157;53.560;10.098;2023-05-10T03:59:27;5.63;;;3.67;;
55292;SDS011;41157;53.560;10.098;2023-05-10T04:01:54;8.13;;;3.50;;
55292;SDS011;41157;53.560;10.098;2023-05-10T04:04:21;8.77;;;3.77;;
55292;SDS011;41157;53.560;10.098;2023-05-10T04:06:50;4.20;;;3.43;;
55292;SDS011;41157;53.560;10.098;2023-05-10T04:09:17;11.30;;;3.90;;
55292;SDS011;41157;53.560;10.098;2023-05-10T04:11:44;4.00;;;3.07;;
55292;SDS011;41157;53.560;10.098;2023-05-10T04:14:11;7.83;;;3.87;;
55292;SDS011;41157;53.560;10.098;2023-05-10T04:16:38;12.10;;;3.70;;
55292;SDS011;41157;53.560;10.098;2023-05-10T04:21:47;3.77;;;3.37;;
55292;SDS011;41157;53.560;10.098;2023-05-10T04:24:16;6.87;;;3.43;;
55292;SDS011;41157;53.560;10.098;2023-05-10T04:26:43;5.67;;;3.60;;
55292;SDS011;41157;53.560;10.098;2023-05-10T04:29:10;4.50;;;3.00;;
55292;SDS011;41157;53.560;10.098;2023-05-10T04:31:37;10.93;;;3.40;;
55292;SDS011;41157;53.560;10.098;2023-05-10T04:34:04;9.33;;;3.30;;
55292;SDS011;41157;53.560;10.098;2023-05-10T04:36:31;9.17;;;3.77;;
55292;SDS011;41157;53.560;10.098;2023-05-10T04:39:00;3.80;;;3.40;;
55292;SDS011;41157;53.560;10.098;2023-05-10T04:41:30;6.90;;;3.80;;
55292;SDS011;41157;53.560;10.098;2023-05-10T04:43:57;5.47;;;3.77;;
55292;SDS011;41157;53.560;10.098;2023-05-10T04:46:24;6.20;;;3.50;;
55292;SDS011;41157;53.560;10.098;2023-05-10T04:48:51;9.87;;;3.97;;
55292;SDS011;41157;53.560;10.098;2023-05-10T04:51:18;4.30;;;3.57;;
55292;SDS011;41157;53.560;10.098;2023-05-10T04:53:45;6.20;;;3.63;;
55292;SDS011;41157;53.560;10.098;2023-05-10T04:56:12;3.93;;;3.30;;
55292;SDS011;41157;53.560;10.098;2023-05-10T04:58:41;5.93;;;3.37;;
55292;SDS011;41157;53.560;10.098;2023-05-10T05:01:08;8.53;;;3.60;;
55292;SDS011;41157;53.560;10.098;2023-05-10T05:03:35;4.67;;;3.73;;
55292;SDS011;41157;53.560;10.098;2023-05-10T05:06:03;4.83;;;3.83;;
55292;SDS011;41157;53.560;10.098;2023-05-10T05:08:30;6.97;;;4.27;;
55292;SDS011;41157;53.560;10.098;2023-05-10T05:10:57;8.70;;;3.93;;
55292;SDS011;41157;53.560;10.098;2023-05-10T05:13:24;5.40;;;3.40;;
55292;SDS011;41157;53.560;10.098;2023-05-10T05:15:52;13.20;;;3.80;;
55292;SDS011;41157;53.560;10.098;2023-05-10T05:18:19;6.70;;;3.43;;
55292;SDS011;41157;53.560;10.098;2023-05-10T05:20:46;3.43;;;3.03;;
55292;SDS011;41157;53.560;10.098;2023-05-10T05:23:13;6.87;;;3.70;;
55292;SDS011;41157;53.560;10.098;2023-05-10T05:25:40;7.33;;;3.63;;
55292;SDS011;41157;53.560;10.098;2023-05-10T05:28:08;4.33;;;3.27;;
55292;SDS011;41157;53.560;10.098;2023-05-10T05:30:35;4.40;;;3.57;;
55292;SDS011;41157;53.560;10.098;2023-05-10T05:33:03;5.33;;;3.90;;
55292;SDS011;41157;53.560;10.098;2023-05-10T05:35:31;5.20;;;3.67;;
55292;SDS011;41157;53.560;10.098;2023-05-10T05:37:58;5.17;;;3.57;;
55292;SDS011;41157;53.560;10.098;2023-05-10T05:40:25;4.87;;;3.73;;
55292;SDS011;41157;53.560;10.098;2023-05-10T05:42:52;7.40;;;3.33;;
55292;SDS011;41157;53.560;10.098;2023-05-10T05:45:19;4.23;;;3.53;;
55292;SDS011;41157;53.560;10.098;2023-05-10T05:47:46;4.57;;;3.77;;
55292;SDS011;41157;53.560;10.098;2023-05-10T05:50:14;5.93;;;3.67;;
55292;SDS011;41157;53.560;10.098;2023-05-10T05:52:41;7.47;;;3.17;;
55292;SDS011;41157;53.560;10.098;2023-05-10T05:55:08;4.20;;;3.50;;
55292;SDS011;41157;53.560;10.098;2023-05-10T05:57:36;5.37;;;3.50;;
55292;SDS011;41157;53.560;10.098;2023-05-10T06:00:04;5.13;;;3.17;;
55292;SDS011;41157;53.560;10.098;2023-05-10T06:02:31;4.57;;;3.33;;
55292;SDS011;41157;53.560;10.098;2023-05-10T06:04:58;4.13;;;3.07;;
55292;SDS011;41157;53.560;10.098;2023-05-10T06:07:26;8.00;;;3.70;;
55292;SDS011;41157;53.560;10.098;2023-05-10T06:09:54;8.10;;;3.40;;
55292;SDS011;41157;53.560;10.098;2023-05-10T06:12:21;6.17;;;3.50;;
55292;SDS011;41157;53.560;10.098;2023-05-10T06:14:48;6.47;;;3.60;;
55292;SDS011;41157;53.560;10.098;2023-05-10T06:17:15;4.70;;;3.40;;
55292;SDS011;41157;53.560;10.098;2023-05-10T06:19:43;5.60;;;3.70;;
55292;SDS011;41157;53.560;10.098;2023-05-10T06:22:10;5.03;;;3.37;;
55292;SDS011;41157;53.560;10.098;2023-05-10T06:24:38;5.70;;;3.37;;
55292;SDS011;41157;53.560;10.098;2023-05-10T06:27:05;5.80;;;2.93;;
55292;SDS011;41157;53.560;10.098;2023-05-10T06:29:33;6.57;;;3.50;;
55292;SDS011;41157;53.560;10.098;2023-05-10T06:32:00;5.10;;;3.13;;
55292;SDS011;41157;53.560;10.098;2023-05-10T06:34:27;6.63;;;3.33;;
55292;SDS011;41157;53.560;10.098;2023-05-10T06:36:54;6.70;;;3.50;;
55292;SDS011;41157;53.560;10.098;2023-05-10T06:39:21;8.07;;;3.43;;
55292;SDS011;41157;53.560;10.098;2023-05-10T06:41:49;7.33;;;3.50;;
55292;SDS011;41157;53.560;10.098;2023-05-10T06:44:17;3.73;;;3.33;;
55292;SDS011;41157;53.560;10.098;2023-05-10T06:46:44;5.47;;;3.60;;
55292;SDS011;41157;53.560;10.098;2023-05-10T06:49:11;6.60;;;3.33;;
55292;SDS011;41157;53.560;10.098;2023-05-10T06:51:38;4.90;;;3.33;;
55292;SDS011;41157;53.560;10.098;2023-05-10T06:54:05;6.00;;;3.67;;
55292;SDS011;41157;53.560;10.098;2023-05-10T06:56:32;7.83;;;3.50;;
55292;SDS011;41157;53.560;10.098;2023-05-10T06:59:00;6.30;;;4.30;;
55292;SDS011;41157;53.560;10.098;2023-05-10T07:01:28;4.37;;;3.97;;
55292;SDS011;41157;53.560;10.098;2023-05-10T07:03:55;3.93;;;3.30;;
55292;SDS011;41157;53.560;10.098;2023-05-10T07:06:22;5.83;;;3.37;;
55292;SDS011;41157;53.560;10.098;2023-05-10T07:08:49;6.13;;;3.80;;
55292;SDS011;41157;53.560;10.098;2023-05-10T07:11:16;4.67;;;3.90;;
55292;SDS011;41157;53.560;10.098;2023-05-10T07:13:43;7.67;;;3.70;;
55292;SDS011;41157;53.560;10.098;2023-05-10T07:16:12;5.60;;;3.30;;
55292;SDS011;41157;53.560;10.098;2023-05-10T07:18:39;6.10;;;3.80;;
55292;SDS011;41157;53.560;10.098;2023-05-10T07:21:07;4.50;;;3.80;;
55292;SDS011;41157;53.560;10.098;2023-05-10T07:23:34;4.00;;;3.30;;
55292;SDS011;41157;53.560;10.098;2023-05-10T07:26:01;3.67;;;3.20;;
55292;SDS011;41157;53.560;10.098;2023-05-10T07:28:28;8.00;;;3.75;;
55292;SDS011;41157;53.560;10.098;2023-05-10T07:30:55;5.20;;;3.60;;
55292;SDS011;41157;53.560;10.098;2023-05-10T07:33:23;9.15;;;3.85;;
55292;SDS011;41157;53.560;10.098;2023-05-10T07:35:51;6.97;;;3.72;;
55292;SDS011;41157;53.560;10.098;2023-05-10T07:38:18;6.40;;;4.05;;
55292;SDS011;41157;53.560;10.098;2023-05-10T07:40:45;6.65;;;3.60;;
55292;SDS011;41157;53.560;10.098;2023-05-10T07:43:12;3.80;;;3.42;;
55292;SDS011;41157;53.560;10.098;2023-05-10T07:45:39;5.75;;;3.72;;
55292;SDS011;41157;53.560;10.098;2023-05-10T07:48:06;3.92;;;3.30;;
55292;SDS011;41157;53.560;10.098;2023-05-10T07:50:35;4.57;;;3.65;;
55292;SDS011;41157;53.560;10.098;2023-05-10T07:53:02;4.95;;;3.53;;
55292;SDS011;41157;53.560;10.098;2023-05-10T07:55:29;4.20;;;2.90;;
55292;SDS011;41157;53.560;10.098;2023-05-10T07:57:56;5.45;;;3.38;;
55292;SDS011;41157;53.560;10.098;2023-05-10T08:00:25;3.50;;;3.20;;
55292;SDS011;41157;53.560;10.098;2023-05-10T08:02:52;5.65;;;3.40;;
55292;SDS011;41157;53.560;10.098;2023-05-10T08:05:20;7.53;;;3.55;;
55292;SDS011;41157;53.560;10.098;2023-05-10T08:07:48;6.72;;;3.50;;
55292;SDS011;41157;53.560;10.098;2023-05-10T08:10:15;6.82;;;3.38;;
55292;SDS011;41157;53.560;10.098;2023-05-10T08:12:42;6.45;;;3.05;;
55292;SDS011;41157;53.560;10.098;2023-05-10T08:15:10;4.53;;;2.90;;
55292;SDS011;41157;53.560;10.098;2023-05-10T08:17:37;6.63;;;3.38;;
55292;SDS011;41157;53.560;10.098;2023-05-10T08:20:04;6.15;;;3.10;;
55292;SDS011;41157;53.560;10.098;2023-05-10T08:22:32;5.18;;;3.63;;
55292;SDS011;41157;53.560;10.098;2023-05-10T08:25:01;12.15;;;3.92;;
55292;SDS011;41157;53.560;10.098;2023-05-10T08:27:28;7.72;;;3.83;;
55292;SDS011;41157;53.560;10.098;2023-05-10T08:29:55;7.05;;;3.75;;
55292;SDS011;41157;53.560;10.098;2023-05-10T08:32:22;9.13;;;4.13;;
55292;SDS011;41157;53.560;10.098;2023-05-10T08:34:49;7.95;;;3.53;;
55292;SDS011;41157;53.560;10.098;2023-05-10T08:37:16;5.95;;;3.40;;
55292;SDS011;41157;53.560;10.098;2023-05-10T08:39:43;5.38;;;3.70;;
55292;SDS011;41157;53.560;10.098;2023-05-10T08:42:14;3.47;;;3.15;;
55292;SDS011;41157;53.560;10.098;2023-05-10T08:44:42;4.03;;;3.63;;
55292;SDS011;41157;53.560;10.098;2023-05-10T08:47:09;3.83;;;3.40;;
55292;SDS011;41157;53.560;10.098;2023-05-10T08:49:37;6.38;;;3.35;;
55292;SDS011;41157;53.560;10.098;2023-05-10T08:52:04;8.77;;;3.70;;
55292;SDS011;41157;53.560;10.098;2023-05-10T08:54:32;3.90;;;3.20;;
55292;SDS011;41157;53.560;10.098;2023-05-10T08:57:00;10.15;;;3.80;;
55292;SDS011;41157;53.560;10.098;2023-05-10T08:59:28;8.48;;;3.50;;
55292;SDS011;41157;53.560;10.098;2023-05-10T09:01:55;6.25;;;3.58;;
55292;SDS011;41157;53.560;10.098;2023-05-10T09:04:24;4.68;;;4.10;;
55292;SDS011;41157;53.560;10.098;2023-05-10T09:06:51;6.55;;;3.80;;
55292;SDS011;41157;53.560;10.098;2023-05-10T09:09:19;5.55;;;3.67;;
55292;SDS011;41157;53.560;10.098;2023-05-10T09:11:46;7.20;;;3.72;;
55292;SDS011;41157;53.560;10.098;2023-05-10T09:14:14;4.47;;;3.63;;
55292;SDS011;41157;53.560;10.098;2023-05-10T09:16:43;9.68;;;4.13;;
55292;SDS011;41157;53.560;10.098;2023-05-10T09:19:10;8.07;;;3.80;;
55292;SDS011;41157;53.560;10.098;2023-05-10T09:21:38;9.10;;;3.67;;
55292;SDS011;41157;53.560;10.098;2023-05-10T09:24:05;5.57;;;4.30;;
55292;SDS011;41157;53.560;10.098;2023-05-10T09:26:32;5.97;;;3.70;;
55292;SDS011;41157;53.560;10.098;2023-05-10T09:29:00;4.75;;;4.10;;
55292;SDS011;41157;53.560;10.098;2023-05-10T09:31:44;10.45;;;3.83;;
55292;SDS011;41157;53.560;10.098;2023-05-10T09:34:11;6.10;;;4.00;;
55292;SDS011;41157;53.560;10.098;2023-05-10T09:36:52;11.60;;;3.90;;
55292;SDS011;41157;53.560;10.098;2023-05-10T09:39:19;6.75;;;4.07;;
55292;SDS011;41157;53.560;10.098;2023-05-10T09:41:46;8.35;;;4.20;;
55292;SDS011;41157;53.560;10.098;2023-05-10T09:44:16;7.28;;;4.03;;
55292;SDS011;41157;53.560;10.098;2023-05-10T09:46:49;9.63;;;4.05;;
55292;SDS011;41157;53.560;10.098;2023-05-10T09:49:17;8.93;;;4.20;;
55292;SDS011;41157;53.560;10.098;2023-05-10T09:51:44;5.55;;;4.20;;
55292;SDS011;41157;53.560;10.098;2023-05-10T09:54:12;5.40;;;3.97;;
55292;SDS011;41157;53.560;10.098;2023-05-10T09:56:40;5.00;;;4.00;;
55292;SDS011;41157;53.560;10.098;2023-05-10T09:59:07;4.10;;;3.45;;
55292;SDS011;41157;53.560;10.098;2023-05-10T10:01:34;9.15;;;4.32;;
55292;SDS011;41157;53.560;10.098;2023-05-10T10:04:03;7.22;;;4.10;;
55292;SDS011;41157;53.560;10.098;2023-05-10T10:06:34;7.80;;;4.70;;
55292;SDS011;41157;53.560;10.098;2023-05-10T10:09:02;5.65;;;4.55;;
55292;SDS011;41157;53.560;10.098;2023-05-10T10:11:29;9.18;;;4.82;;
55292;SDS011;41157;53.560;10.098;2023-05-10T10:13:56;11.98;;;4.90;;
55292;SDS011;41157;53.560;10.098;2023-05-10T10:16:23;6.85;;;4.90;;
55292;SDS011;41157;53.560;10.098;2023-05-10T10:18:51;7.75;;;4.90;;
55292;SDS011;41157;53.560;10.098;2023-05-10T10:21:20;6.20;;;5.10;;
55292;SDS011;41157;53.560;10.098;2023-05-10T10:23:47;6.43;;;4.95;;
55292;SDS011;41157;53.560;10.098;2023-05-10T10:26:14;6.95;;;5.32;;
55292;SDS011;41157;53.560;10.098;2023-05-10T10:28:45;7.65;;;5.30;;
55292;SDS011;41157;53.560;10.098;2023-05-10T10:31:15;6.25;;;5.45;;
55292;SDS011;41157;53.560;10.098;2023-05-10T10:33:51;11.63;;;6.00;;
55292;SDS011;41157;53.560;10.098;2023-05-10T10:36:23;6.80;;;5.50;;
55292;SDS011;41157;53.560;10.098;2023-05-10T10:38:55;9.55;;;5.53;;
55292;SDS011;41157;53.560;10.098;2023-05-10T10:41:28;7.03;;;5.43;;
55292;SDS011;41157;53.560;10.098;2023-05-10T10:46:58;7.17;;;5.67;;
55292;SDS011;41157;53.560;10.098;2023-05-10T10:49:25;8.43;;;5.60;;
55292;SDS011;41157;53.560;10.098;2023-05-10T10:54:40;9.03;;;5.40;;
55292;SDS011;41157;53.560;10.098;2023-05-10T10:57:10;7.17;;;6.43;;
55292;SDS011;41157;53.560;10.098;2023-05-10T10:59:41;8.83;;;6.00;;
55292;SDS011;41157;53.560;10.098;2023-05-10T11:02:08;12.23;;;6.37;;
55292;SDS011;41157;53.560;10.098;2023-05-10T11:04:42;10.57;;;6.43;;
55292;SDS011;41157;53.560;10.098;2023-05-10T11:07:17;7.87;;;6.93;;
55292;SDS011;41157;53.560;10.098;2023-05-10T11:09:46;11.10;;;7.17;;
55292;SDS011;41157;53.560;10.098;2023-05-10T11:12:13;9.77;;;6.20;;
55292;SDS011;41157;53.560;10.098;2023-05-10T11:14:40;6.77;;;6.07;;
55292;SDS011;41157;53.560;10.098;2023-05-10T11:17:23;9.47;;;6.10;;
55292;SDS011;41157;53.560;10.098;2023-05-10T11:20:06;8.77;;;6.17;;
55292;SDS011;41157;53.560;10.098;2023-05-10T11:22:48;7.33;;;6.60;;
55292;SDS011;41157;53.560;10.098;2023-05-10T11:25:17;11.37;;;6.97;;
55292;SDS011;41157;53.560;10.098;2023-05-10T11:27:44;12.33;;;6.97;;
55292;SDS011;41157;53.560;10.098;2023-05-10T11:30:12;8.07;;;7.27;;
55292;SDS011;41157;53.560;10.098;2023-05-10T11:32:39;8.67;;;6.73;;
55292;SDS011;41157;53.560;10.098;2023-05-10T11:35:07;8.63;;;6.53;;
55292;SDS011;41157;53.560;10.098;2023-05-10T11:37:34;11.07;;;6.73;;
55292;SDS011;41157;53.560;10.098;2023-05-10T11:40:03;8.53;;;7.17;;
55292;SDS011;41157;53.560;10.098;2023-05-10T11:42:31;8.97;;;7.20;;
55292;SDS011;41157;53.560;10.098;2023-05-10T11:45:00;11.70;;;7.57;;
55292;SDS011;41157;53.560;10.098;2023-05-10T11:47:27;9.10;;;6.97;;
55292;SDS011;41157;53.560;10.098;2023-05-10T11:49:54;8.87;;;7.00;;
55292;SDS011;41157;53.560;10.098;2023-05-10T11:52:21;7.83;;;7.03;;
55292;SDS011;41157;53.560;10.098;2023-05-10T11:54:50;11.97;;;7.63;;
55292;SDS011;41157;53.560;10.098;2023-05-10T11:57:18;8.37;;;7.57;;
55292;SDS011;41157;53.560;10.098;2023-05-10T11:59:46;9.17;;;7.70;;
55292;SDS011;41157;53.560;10.098;2023-05-10T12:02:13;8.17;;;7.37;;
55292;SDS011;41157;53.560;10.098;2023-05-10T12:04:41;9.27;;;7.67;;
55292;SDS011;41157;53.560;10.098;2023-05-10T12:07:08;10.47;;;7.30;;
55292;SDS011;41157;53.560;10.098;2023-05-10T12:09:35;11.07;;;7.53;;
55292;SDS011;41157;53.560;10.098;2023-05-10T12:12:03;9.53;;;7.30;;
55292;SDS011;41157;53.560;10.098;2023-05-10T12:14:33;8.40;;;7.47;;
55292;SDS011;41157;53.560;10.098;2023-05-10T12:17:02;9.53;;;7.70;;
55292;SDS011;41157;53.560;10.098;2023-05-10T12:19:36;8.63;;;7.23;;
55292;SDS011;41157;53.560;10.098;2023-05-10T12:22:04;12.07;;;8.07;;
55292;SDS011;41157;53.560;10.098;2023-05-10T12:24:34;10.03;;;7.10;;
55292;SDS011;41157;53.560;10.098;2023-05-10T12:27:04;7.80;;;6.97;;
55292;SDS011;41157;53.560;10.098;2023-05-10T12:29:33;9.17;;;6.77;;
55292;SDS011;41157;53.560;10.098;2023-05-10T12:32:01;8.73;;;7.32;;
55292;SDS011;41157;53.560;10.098;2023-05-10T12:34:30;8.00;;;7.20;;
55292;SDS011;41157;53.560;10.098;2023-05-10T12:36:57;8.52;;;7.25;;
55292;SDS011;41157;53.560;10.098;2023-05-10T12:39:25;7.77;;;6.97;;
55292;SDS011;41157;53.560;10.098;2023-05-10T12:41:52;7.55;;;6.85;;
55292;SDS011;41157;53.560;10.098;2023-05-10T12:44:19;9.52;;;7.80;;
55292;SDS011;41157;53.560;10.098;2023-05-10T12:46:46;7.78;;;6.72;;
55292;SDS011;41157;53.560;10.098;2023-05-10T12:49:14;9.10;;;7.20;;
55292;SDS011;41157;53.560;10.098;2023-05-10T12:51:45;7.78;;;6.75;;
55292;SDS011;41157;53.560;10.098;2023-05-10T12:54:12;7.85;;;6.50;;
55292;SDS011;41157;53.560;10.098;2023-05-10T12:56:39;7.75;;;6.55;;
55292;SDS011;41157;53.560;10.098;2023-05-10T12:59:07;7.53;;;5.93;;
55292;SDS011;41157;53.560;10.098;2023-05-10T13:01:34;7.50;;;6.80;;
55292;SDS011;41157;53.560;10.098;2023-05-10T13:04:01;7.20;;;6.28;;
55292;SDS011;41157;53.560;10.098;2023-05-10T13:06:30;7.90;;;6.88;;
55292;SDS011;41157;53.560;10.098;2023-05-10T13:08:57;9.02;;;6.63;;
55292;SDS011;41157;53.560;10.098;2023-05-10T13:11:24;7.20;;;5.95;;
55292;SDS011;41157;53.560;10.098;2023-05-10T13:13:51;7.43;;;6.13;;
55292;SDS011;41157;53.560;10.098;2023-05-10T13:16:18;7.30;;;6.53;;
55292;SDS011;41157;53.560;10.098;2023-05-10T13:18:45;6.32;;;5.72;;
55292;SDS011;41157;53.560;10.098;2023-05-10T13:21:12;9.07;;;5.80;;
55292;SDS011;41157;53.560;10.098;2023-05-10T13:23:40;6.68;;;6.07;;
55292;SDS011;41157;53.560;10.098;2023-05-10T13:26:07;9.55;;;5.88;;
55292;SDS011;41157;53.560;10.098;2023-05-10T13:28:34;10.25;;;5.90;;
55292;SDS011;41157;53.560;10.098;2023-05-10T13:31:03;6.72;;;4.88;;
55292;SDS011;41157;53.560;10.098;2023-05-10T13:33:30;6.47;;;5.32;;
55292;SDS011;41157;53.560;10.098;2023-05-10T13:35:57;5.55;;;5.03;;
55292;SDS011;41157;53.560;10.098;2023-05-10T13:38:24;8.07;;;5.82;;
55292;SDS011;41157;53.560;10.098;2023-05-10T13:40:53;5.70;;;5.18;;
55292;SDS011;41157;53.560;10.098;2023-05-10T13:43:20;6.30;;;4.80;;
55292;SDS011;41157;53.560;10.098;2023-05-10T13:45:47;6.32;;;5.15;;
55292;SDS011;41157;53.560;10.098;2023-05-10T13:48:14;5.20;;;4.70;;
55292;SDS011;41157;53.560;10.098;2023-05-10T13:50:41;4.68;;;4.28;;
55292;SDS011;41157;53.560;10.098;2023-05-10T13:53:08;5.10;;;4.43;;
55292;SDS011;41157;53.560;10.098;2023-05-10T13:55:35;5.00;;;4.50;;
55292;SDS011;41157;53.560;10.098;2023-05-10T13:58:04;4.38;;;4.05;;
55292;SDS011;41157;53.560;10.098;2023-05-10T14:00:31;7.28;;;4.25;;
55292;SDS011;41157;53.560;10.098;2023-05-10T14:02:58;5.65;;;4.03;;
55292;SDS011;41157;53.560;10.098;2023-05-10T14:05:25;3.92;;;3.53;;
55292;SDS011;41157;53.560;10.098;2023-05-10T14:07:52;3.92;;;3.60;;
55292;SDS011;41157;53.560;10.098;2023-05-10T14:10:19;3.95;;;3.58;;
55292;SDS011;41157;53.560;10.098;2023-05-10T14:12:46;3.83;;;3.42;;
55292;SDS011;41157;53.560;10.098;2023-05-10T14:15:15;4.25;;;3.45;;
55292;SDS011;41157;53.560;10.098;2023-05-10T14:17:42;3.70;;;3.40;;
55292;SDS011;41157;53.560;10.098;2023-05-10T14:20:09;4.35;;;3.95;;
55292;SDS011;41157;53.560;10.098;2023-05-10T14:22:36;4.60;;;3.40;;
55292;SDS011;41157;53.560;10.098;2023-05-10T14:25:04;5.15;;;3.78;;
55292;SDS011;41157;53.560;10.098;2023-05-10T14:27:31;3.85;;;3.53;;
55292;SDS011;41157;53.560;10.098;2023-05-10T14:29:58;3.97;;;3.60;;
55292;SDS011;41157;53.560;10.098;2023-05-10T14:32:27;5.10;;;3.65;;
55292;SDS011;41157;53.560;10.098;2023-05-10T14:34:54;4.95;;;3.17;;
55292;SDS011;41157;53.560;10.098;2023-05-10T14:37:21;4.78;;;3.70;;
55292;SDS011;41157;53.560;10.098;2023-05-10T14:39:48;3.83;;;3.53;;
55292;SDS011;41157;53.560;10.098;2023-05-10T14:42:15;4.10;;;3.70;;
55292;SDS011;41157;53.560;10.098;2023-05-10T14:44:42;3.90;;;3.50;;
55292;SDS011;41157;53.560;10.098;2023-05-10T14:47:09;3.30;;;3.00;;
55292;SDS011;41157;53.560;10.098;2023-05-10T14:49:38;3.80;;;3.50;;